CheckWX is a tool to help pilots better visualize weather data.  It is not intended as a substitute for an official pre-flight weather briefing.

13:22:10 UTC

KMVE METAR
Montevideo-Chippewa County Airport
Montevideo, Minnesota, USA
Current

7 mins ago

KMVE 211315Z AUTO 19012G20KT 10SM TS SCT016 SCT110 21/19 A2966 RMK AO2 LTG DSNT NE THRU S
Observed
Sep-21 @ 13:15 UTC
Wind
  • 190° at 12 KTS
  • Gusting to 20 KTS
Visibility
10 SM
Flight Rules
VFR
Conditions
Thunderstorm
Cloud Levels
  • Scattered at 1,600' AGL
  • Scattered at 11,000' AGL
Temperature
21°C / 70°F
Dewpoint
19°C / 66°F
Humidity
88%
Altimeter
29.66" Hg
Pressure
1004.42 hPa
Previous

26 mins ago

KMVE 211256Z AUTO 20010G15KT 10SM -VCTSRA SCT008 SCT021 BKN032 21/19 A2969 RMK AO2 LTG DSNT N THRU S
Observed
Sep-21 @ 12:56 UTC
Wind
  • 200° at 10 KTS
  • Gusting to 15 KTS
Visibility
10 SM
Flight Rules
VFR
Conditions
Area Thunderstorm, Light Rain
Cloud Levels
  • Scattered at 800' AGL
  • Scattered at 2,100' AGL
  • Broken at 3,200' AGL
Temperature
21°C / 70°F
Dewpoint
19°C / 66°F
Humidity
88%
Altimeter
29.69" Hg
Pressure
1005.42 hPa
Previous

46 mins ago

KMVE 211236Z AUTO 19010KT 7SM VCTSRA BKN023 OVC028 21/19 A2971 RMK AO2 LTG DSNT N AND S P0001
Observed
Sep-21 @ 12:36 UTC
Wind
  • 190° at 10 KTS
Visibility
7 SM
Flight Rules
MVFR
Conditions
Area Thunderstorm, Area Rain
Cloud Levels
  • Broken at 2,300' AGL
  • Overcast at 2,800' AGL
Temperature
21°C / 70°F
Dewpoint
19°C / 66°F
Humidity
88%
Altimeter
29.71" Hg
Pressure
1006.12 hPa
Current Rain
0.01"